• Join FlightAware (Why Join?)
  • Login
  • US Flag 
03:21PM EDT


 

Airport Tracker/Info


-or-


 

Live Flight TrackerFlight Track Log ✈ TYR850 ✈ 14-Jun-2013 ✈ LATI / TIA - LOWW / VIE

Flight Track Log - Related Links

Times and Time Zones

All times are in EDT time to prevent confusion due to time zone crossing. See the TYR850 flight status page for this flight to view local times or setup timezone preferences in your user account.

Time Position Orientation Groundspeed Altitude Reporting Facility
EDT Latitude Longitude Course Direction KTS MPH feet Rate Location/Type
10:40PM 42.5206 19.2506 343° North  Level Estimated
10:41PM 42.6127 19.2107 342° North  Level Estimated
10:42PM 42.7048 19.1706 342° North  Level Estimated
10:43PM 42.7968 19.1305 342° North  Level Estimated
10:44PM 42.8888 19.0902 342° North  Level Estimated
10:45PM 42.9808 19.0498 342° North  Level Estimated
10:46PM 43.0728 19.0093 342° North  Level Estimated
10:47PM 43.1648 18.9687 342° North  Level Estimated
10:48PM 43.2568 18.9279 342° North  Level Estimated
10:49PM 43.3488 18.8871 342° North  Level Estimated
10:50PM 43.4407 18.8461 342° North  Level Estimated
10:51PM 43.5326 18.8049 342° North  Level Estimated
10:52PM 43.6245 18.7637 342° North  Level Estimated
10:53PM 43.7164 18.7223 342° North  Level Estimated
10:54PM 43.8083 18.6808 342° North  Level Estimated
10:55PM 43.9002 18.6392 342° North  Level Estimated
10:56PM 43.9920 18.5974 342° North  Level Estimated
10:57PM 44.0839 18.5555 342° North  Level Estimated
10:58PM 44.1757 18.5135 342° North  Level Estimated
10:59PM 44.2675 18.4713 342° North  Level Estimated
11:00PM 44.3593 18.4291 342° North  Level Estimated
11:01PM 44.4511 18.3866 342° North  Level Estimated
11:02PM 44.5428 18.3441 342° North  Level Estimated
11:03PM 44.6346 18.3014 342° North  Level Estimated
11:04PM 44.7263 18.2586 342° North  Level Estimated
11:05PM 44.8180 18.2156 342° North  Level Estimated
11:06PM 44.9097 18.1725 342° North  Level Estimated
11:07PM 45.0014 18.1293 342° North  Level Estimated
11:08PM 45.0930 18.0859 342° North  Level Estimated
11:09PM 45.1847 18.0424 342° North  Level Estimated
11:10PM 45.2763 17.9988 341° North  Level Estimated
11:11PM 45.3679 17.9550 341° North  Level Estimated
11:12PM 45.4595 17.9110 341° North  Level Estimated
11:13PM 45.5511 17.8670 341° North  Level Estimated
11:14PM 45.6427 17.8227 341° North  Level Estimated
11:15PM 45.7342 17.7784 341° North  Level Estimated
11:16PM 45.8257 17.7339 341° North  Level Estimated
11:17PM 45.9173 17.6892 341° North  Level Estimated
11:18PM 46.0088 17.6444 341° North  Level Estimated
11:19PM 46.1002 17.5995 341° North  Level Estimated
11:20PM 46.1917 17.5544 341° North  Level Estimated
11:21PM 46.2831 17.5091 341° North  Level Estimated
11:22PM 46.3745 17.4637 341° North  Level Estimated
11:23PM 46.4660 17.4181 341° North  Level Estimated
11:24PM 46.5573 17.3724 341° North  Level Estimated
11:25PM 46.6487 17.3266 341° North  Level Estimated
11:26PM 46.7401 17.2806 341° North  Level Estimated
11:27PM 46.8314 17.2344 341° North  Level Estimated
11:28PM 46.9227 17.1880 341° North  Level Estimated
11:29PM 47.0140 17.1416 341° North  Level Estimated
11:30PM 47.1053 17.0949 341° North  Level Estimated
11:31PM 47.1965 17.0481 341° North  Level Estimated
11:32PM 47.2878 17.0011 341° North  Level Estimated
11:33PM 47.3790 16.9540 341° North  Level Estimated
11:34PM 47.4702 16.9067 341° North  Level Estimated
11:35PM 47.5614 16.8592 341° North  Level Estimated
11:36PM 47.6525 16.8116 341° North  Level Estimated
11:37PM 47.7437 16.7638 341° North  Level Estimated
11:38PM 47.8348 16.7158 341° North  Level Estimated
11:39PM 47.9259 16.6677 341° North  Level Estimated
11:40PM 48.0170 16.6194 340° North  Level Estimated
11:41PM 48.1080 16.5709 340° North  Level Estimated
11:42PM 48.1103 16.5697 340° North  Level Estimated
11:43PM 48.1103 16.5697 146° Southeast  Level Estimated
11:44PM 48.1103 16.5697 146° Southeast  Level Estimated
11:45PM 48.1103 16.5697 146° Southeast  Level Estimated
11:46PM 48.1103 16.5697 146° Southeast  Level Estimated
11:47PM 48.1103 16.5697 146° Southeast  Level Estimated
11:48PM 48.1103 16.5697 146° Southeast  Level Estimated
11:49PM 48.1103 16.5697 146° Southeast  Level Estimated
11:50PM 48.1103 16.5697 146° Southeast  Level Estimated
11:51PM 48.1103 16.5697 146° Southeast  Level Estimated
11:52PM 48.1103 16.5697 146° Southeast  Level Estimated
11:53PM 48.1103 16.5697 146° Southeast  Level Estimated